Time;durP1;ratioP1;P1;durP2;ratioP2;P2;SDS_P1;SDS_P2;PMS_P1;PMS_P2;Temp;Humidity;BMP_temperature;BMP_pressure;BME280_temperature;BME280_humidity;BME280_pressure;Samples;Min_cycle;Max_cycle;Signal;HPM_P1;HPM_P2
2023/12/27 06:54:36;;;;;;;;;;;;;;;;;;6246405;22;19985;-84
2023/12/27 06:57:03;;;;;;;;;;;;;;;;;;6221647;22;19990;-85
2023/12/27 06:59:28;;;;;;;;;;;;;;;;;;6248389;23;19954;-83
2023/12/27 07:01:53;;;;;;;16.40;10.70;;;;;;;;;;6247474;23;19907;-82
2023/12/27 07:04:19;;;;;;;;;;;;;;;;;;6247817;23;20007;-83
2023/12/27 07:06:44;;;;;;;;;;;;;;;;;;6248959;23;19993;-83
2023/12/27 07:09:09;;;;;;;;;;;;;;;;;;6247627;22;20342;-83
2023/12/27 10:38:16;;;;;;;10.40;8.93;;;;;;;;;;6151478;23;20159;-89
2023/12/27 10:40:42;;;;;;;11.00;9.73;;;;;;;;;;6158938;23;20010;-92
2023/12/27 10:43:08;;;;;;;14.55;9.70;;;;;;;;;;6132700;23;20048;-89
2023/12/27 10:45:35;;;;;;;15.38;10.65;;;;;;;;;;6183599;23;20009;-89
2023/12/27 10:48:04;;;;;;;17.60;10.20;;;;;;;;;;6162446;23;20020;-88
2023/12/27 10:50:30;;;;;;;16.60;10.18;;;;;;;;;;6188998;23;19997;-88
2023/12/27 10:53:07;;;;;;;11.70;9.30;;;;;;;;;;6161701;23;20089;-89
2023/12/27 10:55:33;;;;;;;10.00;8.73;;;;;;;;;;6186965;23;20076;-91
2023/12/27 10:58:01;;;;;;;14.90;9.85;;;;;;;;;;6187439;23;20060;-91
2023/12/27 11:00:28;;;;;;;11.65;9.85;;;;;;;;;;6187785;23;20001;-89
2023/12/27 11:02:54;;;;;;;9.93;8.73;;;;;;;;;;6188338;23;20031;-89
2023/12/27 11:05:22;;;;;;;12.52;9.50;;;;;;;;;;6191535;23;20087;-89
2023/12/27 11:07:49;;;;;;;15.07;9.80;;;;;;;;;;6163174;23;20005;-90
2023/12/27 11:10:16;;;;;;;11.77;9.30;;;;;;;;;;6187100;23;20005;-91
2023/12/27 11:12:48;;;;;;;12.57;9.10;;;;;;;;;;6160568;23;20093;-89
2023/12/27 11:15:14;;;;;;;11.43;8.77;;;;;;;;;;6187086;23;20008;-89
2023/12/27 11:17:40;;;;;;;10.60;8.50;;;;;;;;;;6187471;23;20013;-89
2023/12/27 11:20:11;;;;;;;15.48;10.30;;;;;;;;;;6187029;23;20084;-88
2023/12/27 11:22:38;;;;;;;13.45;9.45;;;;;;;;;;6186923;23;20036;-90
2023/12/27 11:25:05;;;;;;;12.30;9.38;;;;;;;;;;6160142;23;20029;-90
2023/12/27 11:27:31;;;;;;;12.95;10.40;;;;;;;;;;6186793;23;20012;-86
2023/12/27 11:29:57;;;;;;;10.45;8.60;;;;;;;;;;6187061;23;20009;-89
2023/12/27 11:32:24;;;;;;;14.07;9.75;;;;;;;;;;6187006;23;20005;-89
2023/12/27 11:34:49;;;;;;;10.50;8.10;;;;;;;;;;6187075;23;20005;-90
2023/12/27 11:37:15;;;;;;;11.95;9.25;;;;;;;;;;6186857;23;20007;-88
2023/12/27 11:39:48;;;;;;;11.60;8.50;;;;;;;;;;6187072;23;20088;-90
2023/12/27 11:42:16;;;;;;;11.13;8.57;;;;;;;;;;6187980;23;20055;-91
2023/12/27 11:44:56;;;;;;;13.48;9.68;;;;;;;;;;6187234;23;20005;-91
2023/12/27 11:47:22;;;;;;;;;;;;;;;;;;6186514;23;20005;-91
2023/12/27 11:50:09;;;;;;;9.15;7.65;;;;;;;;;;6186231;23;19935;-82
2023/12/27 11:52:40;;;;;;;10.63;8.38;;;;;;;;;;6186292;23;20014;-91
2023/12/27 11:55:17;;;;;;;10.00;8.00;;;;;;;;;;6186443;23;20063;-91
2023/12/27 11:57:43;;;;;;;8.82;7.43;;;;;;;;;;6186572;23;20009;-83
2023/12/27 12:00:12;;;;;;;9.88;7.95;;;;;;;;;;6186093;23;20059;-83
2023/12/27 12:02:48;;;;;;;10.83;8.23;;;;;;;;;;6185956;23;20013;-84
2023/12/27 12:05:39;;;;;;;10.75;8.27;;;;;;;;;;6186021;23;20024;-83
2023/12/27 12:08:40;;;;;;;10.00;7.93;;;;;;;;;;6175119;23;20013;-90
2023/12/27 12:11:12;;;;;;;9.10;7.80;;;;;;;;;;6185903;23;20009;-84
2023/12/27 12:13:39;;;;;;;11.43;9.10;;;;;;;;;;6185962;23;20005;-85
2023/12/27 12:16:05;;;;;;;11.68;8.77;;;;;;;;;;6186362;23;20465;-83
2023/12/27 12:18:34;;;;;;;9.48;7.75;;;;;;;;;;6186030;23;20036;-90
2023/12/27 12:20:59;;;;;;;8.65;7.20;;;;;;;;;;6186098;23;20310;-91
2023/12/27 12:23:29;;;;;;;9.07;6.25;;;;;;;;;;6186065;23;20001;-84
2023/12/27 12:25:57;;;;;;;9.43;6.88;;;;;;;;;;6185620;23;20012;-89
2023/12/27 12:28:24;;;;;;;9.73;6.93;;;;;;;;;;6186163;23;20005;-84
2023/12/27 12:30:50;;;;;;;9.38;6.97;;;;;;;;;;6185790;23;20482;-84
2023/12/27 12:33:15;;;;;;;8.88;6.97;;;;;;;;;;6186221;23;20005;-92
2023/12/27 12:35:41;;;;;;;7.80;5.90;;;;;;;;;;6160699;23;20011;-96
2023/12/27 12:38:06;;;;;;;7.53;5.65;;;;;;;;;;6163309;23;20344;-94
2023/12/27 12:40:32;;;;;;;7.50;5.47;;;;;;;;;;6163159;23;20005;-92
2023/12/27 12:42:58;;;;;;;8.10;6.70;;;;;;;;;;6162447;23;20325;-92
2023/12/27 12:45:24;;;;;;;8.05;7.15;;;;;;;;;;6162389;23;20095;-95
2023/12/27 17:07:22;;;;;;;16.20;10.40;;;;;;;;;;6245490;23;20031;-87
2023/12/27 17:09:48;;;;;;;16.83;9.95;;;;;;;;;;6249512;23;20008;-85
2023/12/27 17:12:18;;;;;;;14.95;9.45;;;;;;;;;;6246479;23;20075;-88
2023/12/27 17:14:46;;;;;;;15.38;9.23;;;;;;;;;;6246134;22;20008;-84
